createdAt,value
2023-08-15T00:00:16.045Z,21
2023-08-15T00:02:12.962Z,23
2023-08-15T00:04:10.114Z,21
2023-08-15T00:06:07.104Z,26
2023-08-15T00:08:03.996Z,23
2023-08-15T00:10:00.939Z,22
2023-08-15T00:11:57.937Z,24
2023-08-15T00:13:54.953Z,22
2023-08-15T00:15:52.177Z,22
2023-08-15T00:17:49.291Z,19
2023-08-15T00:19:46.307Z,24
2023-08-15T00:21:43.103Z,22
2023-08-15T00:23:40.095Z,22
2023-08-15T00:25:37.232Z,24
2023-08-15T00:27:34.228Z,22
2023-08-15T00:29:31.242Z,20
2023-08-15T00:31:28.453Z,22
2023-08-15T00:33:25.459Z,22
2023-08-15T00:35:22.350Z,16
2023-08-15T00:37:19.643Z,20
2023-08-15T00:39:16.652Z,44
2023-08-15T00:41:13.556Z,22
2023-08-15T00:43:10.513Z,25
2023-08-15T00:45:07.500Z,25
2023-08-15T00:47:04.516Z,22
2023-08-15T00:49:01.512Z,19
2023-08-15T00:50:58.550Z,17
2023-08-15T00:52:55.469Z,20
2023-08-15T00:54:52.453Z,17
2023-08-15T00:56:49.486Z,20
2023-08-15T00:58:46.831Z,23
2023-08-15T01:00:43.748Z,19
2023-08-15T01:02:40.831Z,18
2023-08-15T01:04:38.064Z,24
2023-08-15T01:06:34.960Z,20
2023-08-15T01:08:31.896Z,21
2023-08-15T01:10:28.835Z,23
2023-08-15T01:12:25.828Z,21
2023-08-15T01:14:22.727Z,21
2023-08-15T01:16:19.838Z,21
2023-08-15T01:18:16.962Z,17
2023-08-15T01:20:14.004Z,21
2023-08-15T01:22:10.939Z,22
2023-08-15T01:24:08.119Z,22
2023-08-15T01:26:05.094Z,20
2023-08-15T01:28:02.032Z,23
2023-08-15T01:29:59.027Z,19
2023-08-15T01:31:55.898Z,31
2023-08-15T01:33:53.109Z,21
2023-08-15T01:35:50.151Z,23
2023-08-15T01:37:47.050Z,19
2023-08-15T01:39:43.936Z,19
2023-08-15T01:41:40.975Z,24
2023-08-15T01:43:37.943Z,20
2023-08-15T01:45:35.002Z,26
2023-08-15T01:47:32.144Z,19
2023-08-15T01:49:29.597Z,20
2023-08-15T01:51:26.552Z,21
2023-08-15T01:53:23.700Z,22
2023-08-15T01:55:20.595Z,17
2023-08-15T01:57:17.544Z,20
2023-08-15T01:59:14.525Z,31
2023-08-15T02:01:11.459Z,24
2023-08-15T02:03:08.696Z,20
2023-08-15T02:05:05.810Z,21
2023-08-15T02:07:05.113Z,22
2023-08-15T02:09:02.099Z,22
2023-08-15T02:10:59.062Z,22
2023-08-15T02:12:56.084Z,19
2023-08-15T02:14:52.997Z,20
2023-08-15T02:16:49.952Z,20
2023-08-15T02:18:47.981Z,21
2023-08-15T02:20:45.280Z,21
2023-08-15T02:22:42.279Z,16
2023-08-15T02:24:39.268Z,23
2023-08-15T02:26:36.262Z,21
2023-08-15T02:28:33.253Z,20
2023-08-15T02:30:30.353Z,24
2023-08-15T02:32:27.525Z,16
2023-08-15T02:34:24.644Z,23
2023-08-15T02:36:21.891Z,20
2023-08-15T02:38:18.800Z,22
2023-08-15T02:40:15.926Z,19
2023-08-15T02:42:12.852Z,22
2023-08-15T02:44:09.743Z,21
2023-08-15T02:46:06.882Z,22
2023-08-15T02:48:04.145Z,20
2023-08-15T02:50:01.143Z,17
2023-08-15T02:51:58.298Z,47
2023-08-15T02:53:55.181Z,23
2023-08-15T02:55:52.125Z,20
2023-08-15T02:57:49.017Z,15
2023-08-15T02:59:45.958Z,20
2023-08-15T03:01:42.948Z,17
2023-08-15T03:03:40.308Z,20
2023-08-15T03:05:37.320Z,20
2023-08-15T03:07:34.413Z,18
2023-08-15T03:09:31.388Z,20
2023-08-15T03:11:28.342Z,20
2023-08-15T03:13:25.419Z,22
2023-08-15T03:15:22.307Z,17
2023-08-15T03:17:19.506Z,20
2023-08-15T03:19:16.962Z,15
2023-08-15T03:21:13.931Z,19
2023-08-15T03:23:11.085Z,14
2023-08-15T03:25:08.091Z,24
2023-08-15T03:27:05.085Z,20
2023-08-15T03:29:01.908Z,18
2023-08-15T03:30:58.801Z,20
2023-08-15T03:32:55.940Z,15
2023-08-15T03:34:52.897Z,24
2023-08-15T03:36:51.759Z,18
2023-08-15T03:38:49.578Z,14
2023-08-15T03:40:46.676Z,21
2023-08-15T03:42:43.641Z,17
2023-08-15T03:44:40.634Z,22
2023-08-15T03:46:37.692Z,19
2023-08-15T03:48:34.664Z,23
2023-08-15T03:50:31.607Z,19
2023-08-15T03:52:28.760Z,23
2023-08-15T03:54:25.843Z,21
2023-08-15T03:56:22.849Z,21
2023-08-15T03:58:19.937Z,23
2023-08-15T04:00:16.931Z,26
2023-08-15T04:02:13.898Z,27
2023-08-15T04:04:11.227Z,29
2023-08-15T04:06:08.267Z,31
2023-08-15T04:08:05.704Z,33
2023-08-15T04:10:02.772Z,36
2023-08-15T04:11:59.839Z,37
2023-08-15T04:13:56.954Z,39
2023-08-15T04:15:53.911Z,39
2023-08-15T04:17:51.216Z,38
2023-08-15T04:19:48.388Z,49
2023-08-15T04:21:45.430Z,64
2023-08-15T04:23:42.401Z,72
2023-08-15T04:25:39.597Z,72
2023-08-15T04:27:36.620Z,70
2023-08-15T04:29:33.763Z,68
2023-08-15T04:31:30.844Z,83
2023-08-15T04:33:28.171Z,97
2023-08-15T04:35:25.110Z,111
2023-08-15T04:37:22.534Z,118
2023-08-15T04:39:19.772Z,120
2023-08-15T04:41:17.228Z,126
2023-08-15T04:43:14.299Z,130
2023-08-15T04:45:11.254Z,133
2023-08-15T04:47:08.338Z,134
2023-08-15T04:49:05.509Z,138
2023-08-15T04:51:02.588Z,142
2023-08-15T04:52:59.678Z,141
2023-08-15T04:54:56.754Z,152
2023-08-15T04:56:53.772Z,168
2023-08-15T04:58:51.522Z,178
2023-08-15T05:00:48.523Z,185
2023-08-15T05:02:45.669Z,190
2023-08-15T05:04:42.704Z,194
2023-08-15T05:06:39.829Z,198
2023-08-15T05:08:36.835Z,195
2023-08-15T05:10:34.046Z,205
2023-08-15T05:12:31.197Z,201
2023-08-15T05:14:28.183Z,205
2023-08-15T05:16:25.336Z,203
2023-08-15T05:18:22.398Z,205
2023-08-15T05:20:19.467Z,205
2023-08-15T05:22:16.572Z,202
2023-08-15T05:24:13.657Z,207
2023-08-15T05:26:10.733Z,203
2023-08-15T05:28:07.903Z,209
2023-08-15T05:30:04.899Z,209
2023-08-15T05:32:01.815Z,216
2023-08-15T05:33:58.982Z,220
2023-08-15T05:35:56.079Z,233
2023-08-15T05:37:53.066Z,243
2023-08-15T05:39:50.117Z,254
2023-08-15T05:41:47.129Z,256
2023-08-15T05:43:44.143Z,261
2023-08-15T05:45:41.141Z,266
2023-08-15T05:47:38.354Z,267
2023-08-15T05:49:39.837Z,268
2023-08-15T05:51:36.775Z,272
2023-08-15T05:53:33.690Z,289
2023-08-15T05:55:30.818Z,270
2023-08-15T05:57:27.809Z,278
2023-08-15T05:59:26.753Z,310
2023-08-15T06:01:23.722Z,339
2023-08-15T06:03:31.422Z,314
2023-08-15T06:05:37.817Z,258
2023-08-15T06:07:34.833Z,236
2023-08-15T06:09:31.867Z,244
2023-08-15T06:11:28.935Z,260
2023-08-15T06:13:25.858Z,264
2023-08-15T06:15:23.061Z,256
2023-08-15T06:17:20.526Z,242
2023-08-15T06:19:17.770Z,263
2023-08-15T06:21:14.756Z,252
2023-08-15T06:23:11.720Z,240
2023-08-15T06:25:09.048Z,249
2023-08-15T06:27:06.301Z,249
2023-08-15T06:29:03.474Z,264
2023-08-15T06:31:00.708Z,282
2023-08-15T06:32:57.899Z,283
2023-08-15T06:34:55.037Z,287
2023-08-15T06:36:52.082Z,292
2023-08-15T06:38:49.811Z,301
2023-08-15T06:40:46.793Z,319
2023-08-15T06:42:43.836Z,318
2023-08-15T06:44:40.753Z,293
2023-08-15T06:46:37.885Z,288
2023-08-15T06:48:35.115Z,302
2023-08-15T06:50:32.105Z,309
2023-08-15T06:52:29.100Z,315
2023-08-15T06:54:26.705Z,332
2023-08-15T06:56:23.693Z,358
2023-08-15T06:58:20.649Z,389
2023-08-15T07:00:17.760Z,410
2023-08-15T07:02:14.893Z,425
2023-08-15T07:04:12.332Z,431
2023-08-15T07:06:09.203Z,429
2023-08-15T07:08:06.325Z,419
2023-08-15T07:10:03.464Z,443
2023-08-15T07:12:00.510Z,456
2023-08-15T07:13:57.509Z,463
2023-08-15T07:15:54.692Z,468
2023-08-15T07:17:51.907Z,476
2023-08-15T07:19:48.888Z,464
2023-08-15T07:21:45.934Z,472
2023-08-15T07:23:43.027Z,497
2023-08-15T07:25:40.022Z,563
2023-08-15T07:27:36.974Z,595
2023-08-15T07:29:33.861Z,516
2023-08-15T07:31:30.852Z,517
2023-08-15T07:33:28.128Z,495
2023-08-15T07:35:25.209Z,490
2023-08-15T07:37:22.237Z,500
2023-08-15T07:39:19.172Z,509
2023-08-15T07:41:16.377Z,509
2023-08-15T07:43:13.527Z,505
2023-08-15T07:45:10.596Z,573
2023-08-15T07:47:07.750Z,520
2023-08-15T07:49:04.854Z,543
2023-08-15T07:51:07.787Z,533
2023-08-15T07:53:04.895Z,543
2023-08-15T07:55:01.877Z,574
2023-08-15T07:57:02.049Z,609
2023-08-15T07:58:59.084Z,602
2023-08-15T08:00:56.243Z,547
2023-08-15T08:02:53.621Z,599
2023-08-15T08:04:50.838Z,600
2023-08-15T08:06:50.532Z,608
2023-08-15T08:08:47.566Z,623
2023-08-15T08:10:44.402Z,617
2023-08-15T08:12:41.262Z,618
2023-08-15T08:14:44.920Z,620
2023-08-15T08:16:42.001Z,621
2023-08-15T08:18:38.785Z,618
2023-08-15T08:20:35.636Z,623
2023-08-15T08:22:32.420Z,626
2023-08-15T08:24:29.079Z,630
2023-08-15T08:26:25.839Z,631
2023-08-15T08:28:22.527Z,647
2023-08-15T08:30:19.286Z,624
2023-08-15T08:32:15.955Z,634
2023-08-15T08:34:12.821Z,643
2023-08-15T08:36:09.654Z,652
2023-08-15T08:38:06.423Z,642
2023-08-15T08:40:03.206Z,607
2023-08-15T08:41:59.988Z,630
2023-08-15T08:43:56.629Z,647
2023-08-15T08:45:53.280Z,648
2023-08-15T08:47:50.342Z,650
2023-08-15T08:49:47.169Z,640
2023-08-15T08:51:44.083Z,651
2023-08-15T08:53:40.921Z,649
2023-08-15T08:55:37.735Z,645
2023-08-15T08:57:34.703Z,651
2023-08-15T08:59:31.492Z,654
2023-08-15T09:01:28.336Z,657
2023-08-15T09:03:25.361Z,654
2023-08-15T09:05:22.294Z,650
2023-08-15T09:07:19.578Z,657
2023-08-15T09:09:16.758Z,660
2023-08-15T09:11:13.705Z,658
2023-08-15T09:13:10.704Z,656
2023-08-15T09:15:07.628Z,657
2023-08-15T09:17:04.680Z,660
2023-08-15T09:19:01.603Z,664
2023-08-15T09:20:58.616Z,669
2023-08-15T09:22:55.710Z,667
2023-08-15T09:24:52.756Z,656
2023-08-15T09:26:49.661Z,666
2023-08-15T09:28:46.552Z,674
2023-08-15T09:30:43.576Z,669
2023-08-15T09:32:40.779Z,672
2023-08-15T09:34:38.464Z,669
2023-08-15T09:36:35.347Z,664
2023-08-15T09:38:32.681Z,657
2023-08-15T09:40:29.515Z,667
2023-08-15T09:42:26.506Z,667
2023-08-15T09:44:23.496Z,648
2023-08-15T09:46:20.613Z,660
2023-08-15T09:48:19.891Z,671
2023-08-15T09:50:17.220Z,677
2023-08-15T09:52:14.551Z,679
2023-08-15T09:54:11.854Z,677
2023-08-15T09:56:08.991Z,678
2023-08-15T09:58:05.850Z,679
2023-08-15T10:00:02.733Z,651
2023-08-15T10:01:59.719Z,678
2023-08-15T10:03:56.784Z,677
2023-08-15T10:05:53.848Z,685
2023-08-15T10:07:50.953Z,679
2023-08-15T10:09:48.042Z,683
2023-08-15T10:11:44.987Z,679
2023-08-15T10:13:42.283Z,688
2023-08-15T10:15:39.226Z,691
2023-08-15T10:17:36.394Z,672
2023-08-15T10:19:33.617Z,692
2023-08-15T10:21:35.785Z,683
2023-08-15T10:23:32.756Z,601
2023-08-15T10:25:29.979Z,698
2023-08-15T10:27:27.169Z,690
2023-08-15T10:29:24.096Z,695
2023-08-15T10:31:21.336Z,653
2023-08-15T10:33:18.273Z,689
2023-08-15T10:35:15.503Z,685
2023-08-15T10:37:12.603Z,590
2023-08-15T10:39:09.649Z,586
2023-08-15T10:41:06.644Z,692
2023-08-15T10:43:03.496Z,657
2023-08-15T10:45:00.469Z,672
2023-08-15T10:46:59.936Z,696
2023-08-15T10:50:56.767Z,700
2023-08-15T10:52:56.580Z,695
2023-08-15T10:54:53.389Z,704
2023-08-15T10:56:50.306Z,670
2023-08-15T10:58:47.150Z,594
2023-08-15T11:00:44.472Z,678
2023-08-15T11:02:41.519Z,684
2023-08-15T11:04:40.091Z,654
2023-08-15T11:06:37.866Z,528
2023-08-15T11:08:34.773Z,561
2023-08-15T11:10:31.894Z,704
2023-08-15T11:12:28.920Z,699
2023-08-15T11:14:25.852Z,708
2023-08-15T11:16:22.888Z,671
2023-08-15T11:18:19.858Z,602
2023-08-15T11:20:16.883Z,695
2023-08-15T11:22:13.850Z,647
2023-08-15T11:24:10.761Z,556
2023-08-15T11:26:07.686Z,569
2023-08-15T11:28:04.850Z,568
2023-08-15T11:30:01.861Z,603
2023-08-15T11:31:58.785Z,681
2023-08-15T11:33:55.930Z,694
2023-08-15T11:35:53.031Z,625
2023-08-15T11:37:50.021Z,566
2023-08-15T11:39:46.964Z,580
2023-08-15T11:41:43.819Z,539
2023-08-15T11:43:41.303Z,530
2023-08-15T11:45:38.273Z,538
2023-08-15T11:47:35.641Z,543
2023-08-15T11:49:36.778Z,571
2023-08-15T11:51:39.370Z,522
2023-08-15T11:53:36.315Z,524
2023-08-15T11:55:33.353Z,534
2023-08-15T11:57:30.404Z,568
2023-08-15T11:59:27.445Z,687
2023-08-15T12:01:24.346Z,683
2023-08-15T12:03:21.336Z,677
2023-08-15T12:05:18.521Z,587
2023-08-15T12:07:15.412Z,692
2023-08-15T12:09:12.362Z,646
2023-08-15T12:11:09.803Z,556
2023-08-15T12:13:06.781Z,522
2023-08-15T12:15:03.752Z,497
2023-08-15T12:17:00.582Z,487
2023-08-15T12:18:57.576Z,478
2023-08-15T12:20:56.729Z,455
2023-08-15T12:22:53.560Z,453
2023-08-15T12:24:58.097Z,457
2023-08-15T12:26:55.074Z,493
2023-08-15T12:28:51.988Z,537
2023-08-15T12:31:46.745Z,564
2023-08-15T12:33:46.959Z,535
2023-08-15T12:35:44.579Z,528
2023-08-15T12:37:41.407Z,538
2023-08-15T12:39:38.318Z,553
2023-08-15T12:41:46.943Z,593
2023-08-15T12:43:43.938Z,576
2023-08-15T12:45:41.083Z,632
2023-08-15T12:47:38.314Z,648
2023-08-15T12:49:35.510Z,646
2023-08-15T12:51:32.416Z,665
2023-08-15T12:53:29.399Z,632
2023-08-15T12:55:26.385Z,624
2023-08-15T12:57:23.639Z,604
2023-08-15T12:59:20.490Z,611
2023-08-15T13:01:17.583Z,600
2023-08-15T13:03:14.878Z,608
2023-08-15T13:05:11.777Z,583
2023-08-15T13:07:08.650Z,596
2023-08-15T13:09:05.490Z,615
2023-08-15T13:11:02.347Z,618
2023-08-15T13:12:59.275Z,627
2023-08-15T13:14:56.267Z,594
2023-08-15T13:16:53.168Z,574
2023-08-15T13:18:50.759Z,571
2023-08-15T13:20:47.675Z,571
2023-08-15T13:22:44.589Z,560
2023-08-15T13:24:41.556Z,550
2023-08-15T13:26:38.631Z,526
2023-08-15T13:28:35.577Z,528
2023-08-15T13:30:32.518Z,540
2023-08-15T13:32:29.590Z,533
2023-08-15T13:34:26.804Z,524
2023-08-15T13:36:23.803Z,529
2023-08-15T13:38:20.877Z,526
2023-08-15T13:40:18.140Z,512
2023-08-15T13:42:23.509Z,502
2023-08-15T13:44:31.127Z,495
2023-08-15T13:46:32.323Z,494
2023-08-15T13:48:29.385Z,482
2023-08-15T13:50:26.501Z,468
2023-08-15T13:52:23.583Z,449
2023-08-15T13:54:20.539Z,440
2023-08-15T13:56:17.421Z,432
2023-08-15T13:58:14.424Z,422
2023-08-15T14:00:11.362Z,419
2023-08-15T14:02:08.531Z,427
2023-08-15T14:04:06.537Z,442
2023-08-15T14:06:03.774Z,436
2023-08-15T14:08:01.047Z,452
2023-08-15T14:09:57.886Z,479
2023-08-15T14:11:54.804Z,538
2023-08-15T14:13:52.875Z,592
2023-08-15T14:15:50.050Z,664
2023-08-15T14:17:47.240Z,616
2023-08-15T14:19:44.266Z,596
2023-08-15T14:21:41.410Z,601
2023-08-15T14:23:38.247Z,620
2023-08-15T14:25:35.139Z,623
2023-08-15T14:27:32.212Z,654
2023-08-15T14:29:29.087Z,665
2023-08-15T14:31:25.983Z,670
2023-08-15T14:33:23.004Z,670
2023-08-15T14:35:20.090Z,657
2023-08-15T14:37:17.308Z,657
2023-08-15T14:39:14.169Z,664
2023-08-15T14:41:11.134Z,658
2023-08-15T14:43:08.075Z,655
2023-08-15T14:45:05.202Z,652
2023-08-15T14:47:02.268Z,647
2023-08-15T14:48:59.361Z,624
2023-08-15T14:50:56.641Z,610
2023-08-15T14:52:53.722Z,627
2023-08-15T14:54:50.802Z,647
2023-08-15T14:56:47.757Z,640
2023-08-15T14:58:44.783Z,647
2023-08-15T15:00:41.702Z,643
2023-08-15T15:02:38.810Z,637
2023-08-15T15:04:36.128Z,639
2023-08-15T15:06:32.935Z,635
2023-08-15T15:08:30.007Z,638
2023-08-15T15:10:26.994Z,639
2023-08-15T15:12:23.989Z,649
2023-08-15T15:14:21.035Z,639
2023-08-15T15:16:17.944Z,634
2023-08-15T15:18:15.189Z,632
2023-08-15T15:20:12.264Z,630
2023-08-15T15:22:09.524Z,624
2023-08-15T15:24:06.681Z,632
2023-08-15T15:26:03.541Z,627
2023-08-15T15:28:00.499Z,626
2023-08-15T15:29:57.343Z,615
2023-08-15T15:31:54.255Z,529
2023-08-15T15:33:52.294Z,574
2023-08-15T15:35:49.208Z,618
2023-08-15T15:37:46.207Z,606
2023-08-15T15:39:43.332Z,579
2023-08-15T15:41:40.551Z,614
2023-08-15T15:43:37.573Z,611
2023-08-15T15:45:34.566Z,589
2023-08-15T15:47:31.860Z,604
2023-08-15T15:49:29.084Z,478
2023-08-15T15:51:26.077Z,455
2023-08-15T15:53:22.917Z,438
2023-08-15T15:55:20.093Z,446
2023-08-15T15:57:17.078Z,442
2023-08-15T15:59:14.021Z,460
2023-08-15T16:01:10.902Z,458
2023-08-15T16:03:08.181Z,455
2023-08-15T16:05:05.260Z,451
2023-08-15T16:07:02.094Z,449
2023-08-15T16:08:59.159Z,452
2023-08-15T16:10:56.281Z,452
2023-08-15T16:12:53.273Z,457
2023-08-15T16:14:50.217Z,462
2023-08-15T16:16:47.158Z,456
2023-08-15T16:18:43.906Z,456
2023-08-15T16:20:40.789Z,454
2023-08-15T16:22:37.737Z,460
2023-08-15T16:24:34.802Z,484
2023-08-15T16:26:31.890Z,472
2023-08-15T16:28:28.809Z,461
2023-08-15T16:30:25.765Z,455
2023-08-15T16:32:23.017Z,534
2023-08-15T16:34:20.301Z,533
2023-08-15T16:36:17.195Z,445
2023-08-15T16:38:15.920Z,437
2023-08-15T16:40:13.044Z,526
2023-08-15T16:42:10.063Z,512
2023-08-15T16:44:07.016Z,429
2023-08-15T16:46:04.000Z,416
2023-08-15T16:48:01.106Z,410
2023-08-15T16:49:58.395Z,407
2023-08-15T16:51:55.281Z,416
2023-08-15T16:53:53.043Z,484
2023-08-15T16:55:49.970Z,479
2023-08-15T16:57:46.982Z,489
2023-08-15T16:59:44.024Z,478
2023-08-15T17:01:40.918Z,471
2023-08-15T17:03:38.110Z,463
2023-08-15T17:05:35.441Z,459
2023-08-15T17:07:32.236Z,457
2023-08-15T17:09:29.209Z,450
2023-08-15T17:11:26.153Z,445
2023-08-15T17:13:23.123Z,440
2023-08-15T17:15:20.049Z,435
2023-08-15T17:17:16.906Z,419
2023-08-15T17:19:13.842Z,428
2023-08-15T17:21:13.578Z,417
2023-08-15T17:23:10.482Z,415
2023-08-15T17:25:07.438Z,411
2023-08-15T17:27:04.356Z,406
2023-08-15T17:29:01.403Z,402
2023-08-15T17:31:00.712Z,392
2023-08-15T17:32:58.198Z,385
2023-08-15T17:34:55.114Z,377
2023-08-15T17:36:51.907Z,370
2023-08-15T17:38:48.746Z,364
2023-08-15T17:40:45.730Z,360
2023-08-15T17:42:42.656Z,356
2023-08-15T17:44:39.772Z,348
2023-08-15T17:46:36.676Z,347
2023-08-15T17:48:33.809Z,342
2023-08-15T17:50:30.597Z,338
2023-08-15T17:52:27.584Z,336
2023-08-15T17:54:24.462Z,332
2023-08-15T17:56:21.421Z,326
2023-08-15T17:58:18.443Z,327
2023-08-15T18:00:15.605Z,319
2023-08-15T18:02:12.420Z,316
2023-08-15T18:04:09.559Z,316
2023-08-15T18:06:06.641Z,303
2023-08-15T18:08:03.688Z,307
2023-08-15T18:10:00.633Z,304
2023-08-15T18:11:57.780Z,298
2023-08-15T18:13:54.686Z,292
2023-08-15T18:15:51.891Z,291
2023-08-15T18:17:49.107Z,288
2023-08-15T18:19:46.265Z,282
2023-08-15T18:21:43.186Z,277
2023-08-15T18:23:43.628Z,266
2023-08-15T18:25:40.604Z,259
2023-08-15T18:27:37.608Z,252
2023-08-15T18:29:34.547Z,248
2023-08-15T18:31:31.604Z,237
2023-08-15T18:33:28.998Z,238
2023-08-15T18:35:25.995Z,221
2023-08-15T18:37:23.190Z,211
2023-08-15T18:39:20.128Z,203
2023-08-15T18:41:17.032Z,194
2023-08-15T18:43:13.913Z,185
2023-08-15T18:45:10.794Z,179
2023-08-15T18:47:08.143Z,167
2023-08-15T18:49:05.451Z,160
2023-08-15T18:51:02.404Z,151
2023-08-15T18:52:59.498Z,145
2023-08-15T18:54:56.489Z,131
2023-08-15T18:56:53.427Z,131
2023-08-15T18:58:50.417Z,120
2023-08-15T19:00:47.946Z,111
2023-08-15T19:02:45.256Z,103
2023-08-15T19:04:42.777Z,93
2023-08-15T19:06:39.815Z,89
2023-08-15T19:08:36.627Z,79
2023-08-15T19:10:33.603Z,67
2023-08-15T19:12:30.593Z,63
2023-08-15T19:14:27.496Z,53
2023-08-15T19:16:24.499Z,54
2023-08-15T19:18:21.676Z,50
2023-08-15T19:20:18.665Z,45
2023-08-15T19:22:15.538Z,43
2023-08-15T19:24:12.522Z,39
2023-08-15T19:26:13.954Z,40
2023-08-15T19:28:11.013Z,41
2023-08-15T19:30:08.038Z,31
2023-08-15T19:32:05.002Z,33
2023-08-15T19:34:02.125Z,31
2023-08-15T19:35:59.111Z,31
2023-08-15T19:37:56.105Z,31
2023-08-15T19:39:53.110Z,28
2023-08-15T19:41:50.466Z,27
2023-08-15T19:43:47.592Z,29
2023-08-15T19:45:44.476Z,25
2023-08-15T19:47:41.774Z,23
2023-08-15T19:49:38.864Z,23
2023-08-15T19:51:35.857Z,24
2023-08-15T19:53:32.763Z,23
2023-08-15T19:55:29.707Z,24
2023-08-15T19:57:26.762Z,26
2023-08-15T19:59:23.800Z,24
2023-08-15T20:01:20.703Z,26
2023-08-15T20:03:17.783Z,23
2023-08-15T20:05:15.084Z,24
2023-08-15T20:07:12.176Z,26
2023-08-15T20:09:09.066Z,24
2023-08-15T20:11:06.024Z,23
2023-08-15T20:13:03.050Z,23
2023-08-15T20:14:59.949Z,21
2023-08-15T20:16:56.949Z,22
2023-08-15T20:18:54.139Z,24
2023-08-15T20:20:51.396Z,23
2023-08-15T20:22:48.477Z,23
2023-08-15T20:24:45.630Z,25
2023-08-15T20:26:42.613Z,23
2023-08-15T20:28:39.673Z,24
2023-08-15T20:30:36.542Z,22
2023-08-15T20:32:33.778Z,26
2023-08-15T20:34:31.125Z,25
2023-08-15T20:36:28.097Z,22
2023-08-15T20:38:25.187Z,23
2023-08-15T20:40:22.182Z,23
2023-08-15T20:42:19.195Z,22
2023-08-15T20:44:16.212Z,25
2023-08-15T20:46:13.240Z,21
2023-08-15T20:48:10.561Z,23
2023-08-15T20:50:07.781Z,16
2023-08-15T20:52:04.941Z,21
2023-08-15T20:54:02.104Z,22
2023-08-15T20:55:59.095Z,20
2023-08-15T20:57:56.082Z,23
2023-08-15T20:59:53.129Z,24
2023-08-15T21:01:50.196Z,24
2023-08-15T21:03:47.682Z,25
2023-08-15T21:05:44.951Z,27
2023-08-15T21:07:42.046Z,22
2023-08-15T21:09:39.082Z,23
2023-08-15T21:11:36.010Z,23
2023-08-15T21:13:32.998Z,29
2023-08-15T21:15:30.055Z,26
2023-08-15T21:17:27.052Z,24
2023-08-15T21:19:24.024Z,26
2023-08-15T21:21:20.998Z,25
2023-08-15T21:23:18.014Z,24
2023-08-15T21:25:15.024Z,22
2023-08-15T21:27:12.101Z,24
2023-08-15T21:29:09.006Z,21
2023-08-15T21:31:06.159Z,25
2023-08-15T21:33:03.476Z,22
2023-08-15T21:35:00.633Z,22
2023-08-15T21:36:57.753Z,25
2023-08-15T21:38:54.910Z,25
2023-08-15T21:40:51.924Z,23
2023-08-15T21:42:48.913Z,21
2023-08-15T21:44:46.159Z,23
2023-08-15T21:46:43.116Z,20
2023-08-15T21:48:40.150Z,23
2023-08-15T21:50:37.035Z,22
2023-08-15T21:52:34.106Z,23
2023-08-15T21:54:31.131Z,23
2023-08-15T21:56:29.678Z,22
2023-08-15T21:58:28.035Z,23
2023-08-15T22:00:25.124Z,18
2023-08-15T22:02:22.217Z,21
2023-08-15T22:04:19.436Z,23
2023-08-15T22:06:16.522Z,17
2023-08-15T22:08:13.312Z,18
2023-08-15T22:10:10.365Z,15
2023-08-15T22:12:07.246Z,21
2023-08-15T22:14:04.281Z,24
2023-08-15T22:16:01.173Z,21
2023-08-15T22:18:12.992Z,21
2023-08-15T22:20:14.954Z,22
2023-08-15T22:22:12.019Z,20
2023-08-15T22:24:08.983Z,21
2023-08-15T22:26:06.102Z,20
2023-08-15T22:28:03.245Z,13
2023-08-15T22:30:00.179Z,21
2023-08-15T22:31:57.411Z,19
2023-08-15T22:33:54.480Z,19
2023-08-15T22:35:51.436Z,20
2023-08-15T22:37:48.320Z,22
2023-08-15T22:39:45.332Z,21
2023-08-15T22:41:42.464Z,20
2023-08-15T22:43:39.339Z,20
2023-08-15T22:45:36.428Z,24
2023-08-15T22:47:33.601Z,20
2023-08-15T22:49:31.040Z,21
2023-08-15T22:51:28.033Z,19
2023-08-15T22:53:25.027Z,31
2023-08-15T22:55:22.198Z,23
2023-08-15T22:57:19.283Z,24
2023-08-15T22:59:16.257Z,34
2023-08-15T23:01:13.257Z,17
2023-08-15T23:03:10.375Z,19
2023-08-15T23:05:07.445Z,22
2023-08-15T23:07:04.542Z,21
2023-08-15T23:09:01.542Z,20
2023-08-15T23:10:58.598Z,19
2023-08-15T23:12:55.719Z,23
2023-08-15T23:14:52.812Z,21
2023-08-15T23:16:50.071Z,20
2023-08-15T23:18:47.264Z,21
2023-08-15T23:20:44.310Z,26
2023-08-15T23:22:41.301Z,21
2023-08-15T23:24:38.411Z,20
2023-08-15T23:26:35.412Z,17
2023-08-15T23:28:32.635Z,20
2023-08-15T23:30:29.579Z,19
2023-08-15T23:32:27.074Z,22
2023-08-15T23:34:24.275Z,20
2023-08-15T23:36:21.283Z,22
2023-08-15T23:38:18.319Z,17
2023-08-15T23:40:15.267Z,17
2023-08-15T23:42:12.394Z,23
2023-08-15T23:44:09.497Z,16
2023-08-15T23:46:06.465Z,21
2023-08-15T23:48:03.750Z,21
2023-08-15T23:50:00.837Z,19
2023-08-15T23:51:57.772Z,16
2023-08-15T23:53:54.723Z,24
2023-08-15T23:55:51.560Z,20
2023-08-15T23:57:48.450Z,20
2023-08-15T23:59:45.643Z,22
